createdAt,value
2022-08-12T00:02:04.276Z,19.20
2022-08-12T00:04:46.891Z,19.75
2022-08-12T00:07:33.862Z,19.38
2022-08-12T00:10:19.660Z,19.34
2022-08-12T00:13:05.147Z,19.43
2022-08-12T00:15:52.544Z,19.57
2022-08-12T00:18:37.779Z,19.77
2022-08-12T00:21:23.640Z,19.70
2022-08-12T00:24:11.622Z,19.74
2022-08-12T00:26:59.154Z,19.82
2022-08-12T00:29:48.017Z,19.88
2022-08-12T00:32:36.694Z,19.82
2022-08-12T00:35:30.784Z,19.73
2022-08-12T00:38:22.551Z,20.04
2022-08-12T00:41:08.395Z,20.13
2022-08-12T00:43:37.437Z,20.48
2022-08-12T00:46:24.009Z,20.25
2022-08-12T00:48:53.517Z,20.41
2022-08-12T00:51:21.366Z,20.53
2022-08-12T00:53:50.290Z,20.39
2022-08-12T00:56:20.161Z,20.36
2022-08-12T00:58:50.935Z,20.58
2022-08-12T01:01:19.405Z,20.32
2022-08-12T01:04:07.327Z,20.41
2022-08-12T01:06:55.936Z,20.76
2022-08-12T01:09:41.769Z,20.85
2022-08-12T01:12:10.727Z,20.93
2022-08-12T01:14:40.934Z,20.96
2022-08-12T01:17:09.876Z,20.65
2022-08-12T01:19:38.204Z,20.99
2022-08-12T01:22:21.146Z,21.01
2022-08-12T01:24:59.191Z,21.19
2022-08-12T01:27:28.470Z,21.00
2022-08-12T01:29:58.114Z,21.24
2022-08-12T01:32:27.992Z,20.87
2022-08-12T01:34:58.944Z,21.20
2022-08-12T01:37:27.637Z,21.39
2022-08-12T01:40:31.554Z,21.11
2022-08-12T01:42:48.269Z,21.46
2022-08-12T01:45:17.652Z,21.22
2022-08-12T01:47:57.995Z,21.24
2022-08-12T01:50:27.634Z,21.41
2022-08-12T01:53:01.859Z,21.31
2022-08-12T01:55:33.401Z,21.84
2022-08-12T01:58:07.238Z,21.67
2022-08-12T02:00:54.947Z,21.73
2022-08-12T02:04:07.842Z,21.73
2022-08-12T02:07:00.165Z,21.81
2022-08-12T02:09:51.765Z,21.94
2022-08-12T02:12:31.419Z,21.98
2022-08-12T02:15:04.732Z,21.98
2022-08-12T02:17:55.568Z,22.16
2022-08-12T02:20:51.076Z,22.02
2022-08-12T02:23:18.423Z,22.03
2022-08-12T02:25:47.936Z,22.37
2022-08-12T02:28:17.457Z,22.24
2022-08-12T02:30:45.299Z,22.54
2022-08-12T02:33:13.385Z,22.20
2022-08-12T02:35:41.465Z,22.32
2022-08-12T02:38:11.104Z,22.25
2022-08-12T02:40:40.511Z,22.59
2022-08-12T02:43:13.400Z,22.69
2022-08-12T02:45:45.447Z,22.70
2022-08-12T02:48:17.111Z,22.64
2022-08-12T02:50:48.442Z,22.73
2022-08-12T02:53:16.753Z,23.02
2022-08-12T02:55:45.797Z,22.60
2022-08-12T02:58:15.076Z,22.79
2022-08-12T03:00:45.375Z,22.85
2022-08-12T03:03:14.482Z,22.88
2022-08-12T03:05:46.402Z,23.12
2022-08-12T03:08:31.497Z,23.23
2022-08-12T03:11:03.330Z,23.24
2022-08-12T03:13:33.471Z,22.85
2022-08-12T03:16:03.089Z,23.16
2022-08-12T03:18:32.132Z,23.08
2022-08-12T03:21:01.535Z,23.05
2022-08-12T03:23:31.197Z,23.17
2022-08-12T03:26:02.056Z,23.56
2022-08-12T03:28:49.069Z,23.19
2022-08-12T03:31:19.417Z,23.36
2022-08-12T03:34:01.827Z,23.11
2022-08-12T03:36:33.823Z,23.66
2022-08-12T03:41:58.754Z,23.33
2022-08-12T03:44:47.359Z,23.80
2022-08-12T03:47:38.100Z,23.87
2022-08-12T03:50:23.882Z,23.69
2022-08-12T03:53:09.515Z,23.84
2022-08-12T03:55:55.127Z,23.42
2022-08-12T03:58:42.026Z,23.89
2022-08-12T04:01:09.746Z,24.07
2022-08-12T04:03:56.116Z,23.58
2022-08-12T04:06:34.991Z,23.91
2022-08-12T04:09:15.586Z,24.04
2022-08-12T04:12:03.497Z,24.31
2022-08-12T04:14:33.343Z,24.13
2022-08-12T04:17:01.477Z,23.78
2022-08-12T04:19:30.285Z,24.30
2022-08-12T04:22:01.188Z,23.96
2022-08-12T04:24:31.107Z,24.05
2022-08-12T04:26:59.240Z,24.40
2022-08-12T04:30:21.482Z,24.10
2022-08-12T04:32:16.849Z,24.47
2022-08-12T04:34:44.988Z,24.36
2022-08-12T04:37:13.419Z,24.36
2022-08-12T04:39:41.293Z,24.57
2022-08-12T04:42:09.110Z,24.28
2022-08-12T04:44:36.781Z,24.45
2022-08-12T04:47:04.601Z,24.78
2022-08-12T04:49:35.798Z,24.69
2022-08-12T04:52:04.187Z,24.53
2022-08-12T04:54:33.544Z,24.48
2022-08-12T04:57:03.145Z,24.84
2022-08-12T04:59:47.613Z,25.01
2022-08-12T05:02:20.912Z,24.48
2022-08-12T05:04:52.352Z,24.84
2022-08-12T05:07:20.403Z,25.00
2022-08-12T05:09:59.287Z,25.13
2022-08-12T05:12:31.210Z,24.67
2022-08-12T05:14:59.214Z,24.83
2022-08-12T05:17:27.279Z,24.85
2022-08-12T05:19:57.935Z,25.30
2022-08-12T05:22:26.073Z,25.18
2022-08-12T05:24:53.866Z,25.49
2022-08-12T05:27:23.621Z,25.54
2022-08-12T05:30:07.469Z,25.31
2022-08-12T05:32:37.185Z,25.34
2022-08-12T05:35:08.052Z,25.82
2022-08-12T05:37:35.953Z,25.29
2022-08-12T05:40:10.533Z,25.38
2022-08-12T05:42:39.397Z,25.80
2022-08-12T05:45:07.625Z,25.50
2022-08-12T05:47:52.634Z,25.47
2022-08-12T05:50:23.083Z,25.59
2022-08-12T05:52:50.722Z,25.21
2022-08-12T05:55:24.197Z,25.42
2022-08-12T05:57:55.366Z,25.56
2022-08-12T06:00:25.804Z,25.10
2022-08-12T06:02:57.075Z,25.28
2022-08-12T06:05:26.597Z,25.32
2022-08-12T06:08:01.330Z,24.95
2022-08-12T06:10:32.034Z,25.20
2022-08-12T06:13:00.393Z,24.52
2022-08-12T06:15:28.293Z,25.11
2022-08-12T06:17:56.370Z,24.49
2022-08-12T06:20:28.753Z,24.44
2022-08-12T06:22:58.873Z,24.61
2022-08-12T06:25:29.339Z,24.66
2022-08-12T06:28:06.517Z,24.34
2022-08-12T06:30:39.543Z,24.47
2022-08-12T06:33:22.518Z,24.56
2022-08-12T06:35:57.417Z,24.94
2022-08-12T06:38:28.604Z,24.91
2022-08-12T06:41:15.163Z,24.45
2022-08-12T06:44:04.933Z,24.76
2022-08-12T06:46:32.004Z,24.42
2022-08-12T06:49:00.241Z,24.74
2022-08-12T06:51:29.550Z,24.43
2022-08-12T06:53:58.849Z,24.63
2022-08-12T06:56:45.889Z,24.36
2022-08-12T06:59:15.599Z,24.56
2022-08-12T07:01:49.620Z,24.41
2022-08-12T07:04:36.403Z,23.89
2022-08-12T07:07:06.382Z,23.75
2022-08-12T07:09:59.487Z,23.58
2022-08-12T07:12:26.581Z,23.56
2022-08-12T07:14:55.590Z,23.48
2022-08-12T07:17:23.291Z,23.26
2022-08-12T07:19:52.083Z,23.05
2022-08-12T07:22:21.996Z,22.89
2022-08-12T07:25:11.532Z,22.66
2022-08-12T07:27:40.640Z,22.41
2022-08-12T07:30:09.798Z,22.28
2022-08-12T07:32:37.783Z,22.09
2022-08-12T07:35:05.788Z,22.04
2022-08-12T07:37:35.116Z,21.87
2022-08-12T07:40:04.708Z,21.49
2022-08-12T07:42:32.411Z,21.42
2022-08-12T07:45:00.368Z,21.24
2022-08-12T07:47:28.396Z,21.15
2022-08-12T07:50:03.534Z,21.01
2022-08-12T07:52:34.003Z,20.80
2022-08-12T07:55:01.818Z,20.71
2022-08-12T07:57:32.566Z,20.58
2022-08-12T08:00:04.836Z,20.56
2022-08-12T08:02:37.029Z,20.29
2022-08-12T08:05:05.881Z,20.33
2022-08-12T08:07:33.611Z,20.33
2022-08-12T08:10:02.269Z,20.38
2022-08-12T08:12:48.850Z,20.29
2022-08-12T08:15:17.490Z,19.97
2022-08-12T08:17:59.701Z,20.03
2022-08-12T08:20:29.468Z,20.08
2022-08-12T08:22:58.168Z,19.74
2022-08-12T08:25:36.969Z,19.64
2022-08-12T08:28:08.125Z,19.76
2022-08-12T08:30:38.265Z,19.58
2022-08-12T08:33:21.232Z,19.46
2022-08-12T08:35:51.080Z,19.25
2022-08-12T08:38:32.453Z,19.21
2022-08-12T08:42:15.369Z,19.08
2022-08-12T08:44:10.883Z,18.71
2022-08-12T08:46:39.308Z,18.98
2022-08-12T08:49:07.266Z,18.72
2022-08-12T08:51:35.271Z,18.43
2022-08-12T08:54:03.086Z,18.34
2022-08-12T08:56:30.884Z,18.21
2022-08-12T08:58:58.803Z,18.29
2022-08-12T09:01:31.155Z,18.41
2022-08-12T09:05:12.941Z,18.28
2022-08-12T09:06:56.835Z,18.11
2022-08-12T09:09:28.359Z,18.21
2022-08-12T09:12:27.317Z,18.18
2022-08-12T09:14:55.406Z,17.73
2022-08-12T09:17:24.410Z,18.00
2022-08-12T09:22:39.836Z,17.48
2022-08-12T09:25:07.636Z,17.26
2022-08-12T09:30:41.757Z,17.34
2022-08-12T09:33:18.944Z,16.14
2022-08-12T09:36:04.789Z,16.67
2022-08-12T09:38:35.217Z,16.46
2022-08-12T09:42:33.315Z,16.51
2022-08-12T09:44:38.541Z,16.40
2022-08-12T09:46:58.963Z,16.54
2022-08-12T09:49:37.192Z,16.97
2022-08-12T09:52:11.607Z,16.33
2022-08-12T09:54:42.651Z,16.88
2022-08-12T09:58:08.270Z,16.43
2022-08-12T10:00:14.575Z,16.50
2022-08-12T10:03:02.714Z,16.24
2022-08-12T10:06:19.605Z,16.12
2022-08-12T10:08:27.404Z,15.99
2022-08-12T10:11:20.538Z,16.07
2022-08-12T10:13:49.975Z,15.95
2022-08-12T10:16:22.702Z,15.86
2022-08-12T10:18:52.821Z,15.80
2022-08-12T10:21:23.706Z,15.39
2022-08-12T10:23:56.623Z,15.42
2022-08-12T10:26:42.697Z,15.87
2022-08-12T10:30:38.642Z,15.29
2022-08-12T10:33:02.439Z,15.23
2022-08-12T10:35:09.812Z,15.17
2022-08-12T10:38:38.567Z,15.64
2022-08-12T10:40:31.891Z,15.74
2022-08-12T10:43:17.873Z,15.04
2022-08-12T10:45:49.179Z,14.93
2022-08-12T10:48:21.979Z,15.16
2022-08-12T10:51:02.525Z,15.32
2022-08-12T10:53:45.019Z,15.30
2022-08-12T10:56:15.301Z,14.47
2022-08-12T10:58:46.320Z,15.00
2022-08-12T11:03:02.330Z,14.46
2022-08-12T11:04:27.160Z,14.53
2022-08-12T11:07:07.902Z,15.03
2022-08-12T11:10:00.134Z,14.48
2022-08-12T11:12:57.155Z,14.78
2022-08-12T11:15:20.971Z,14.88
2022-08-12T11:17:55.648Z,14.29
2022-08-12T11:20:24.589Z,14.20
2022-08-12T11:22:59.526Z,14.00
2022-08-12T11:25:56.127Z,14.16
2022-08-12T11:28:17.604Z,14.18
2022-08-12T11:31:01.372Z,14.72
2022-08-12T11:34:04.502Z,14.66
2022-08-12T11:36:17.293Z,13.94
2022-08-12T11:38:50.508Z,14.49
2022-08-12T11:41:27.975Z,14.67
2022-08-12T11:43:59.713Z,14.25
2022-08-12T11:46:51.383Z,14.26
2022-08-12T11:49:30.668Z,13.86
2022-08-12T11:52:01.067Z,13.73
2022-08-12T11:54:29.779Z,14.13
2022-08-12T11:57:01.923Z,14.16
2022-08-12T12:02:02.814Z,14.24
2022-08-12T12:02:20.237Z,14.30
2022-08-12T12:04:52.461Z,13.80
2022-08-12T12:07:33.683Z,13.63
2022-08-12T12:10:11.148Z,14.27
2022-08-12T12:12:41.559Z,14.19
2022-08-12T12:15:25.424Z,14.19
2022-08-12T12:18:05.165Z,13.93
2022-08-12T12:20:32.955Z,13.34
2022-08-12T12:23:00.605Z,13.94
2022-08-12T12:25:59.683Z,13.44
2022-08-12T12:28:36.538Z,13.82
2022-08-12T12:31:15.089Z,13.63
2022-08-12T12:33:58.369Z,13.32
2022-08-12T12:36:30.183Z,13.44
2022-08-12T12:39:00.281Z,13.16
2022-08-12T12:42:43.137Z,13.39
2022-08-12T12:44:38.608Z,12.87
2022-08-12T12:47:28.838Z,13.61
2022-08-12T12:49:53.539Z,13.50
2022-08-12T12:52:21.545Z,13.31
2022-08-12T12:54:57.514Z,13.46
2022-08-12T12:57:36.406Z,12.85
2022-08-12T13:00:16.569Z,13.16
2022-08-12T13:02:53.656Z,13.03
2022-08-12T13:05:27.960Z,13.09
2022-08-12T13:08:01.003Z,12.83
2022-08-12T13:10:32.168Z,12.38
2022-08-12T13:13:09.633Z,12.34
2022-08-12T13:15:58.972Z,12.82
2022-08-12T13:18:33.595Z,12.34
2022-08-12T13:21:02.450Z,12.49
2022-08-12T13:23:36.124Z,12.82
2022-08-12T13:26:04.576Z,12.41
2022-08-12T13:28:32.851Z,12.54
2022-08-12T13:31:02.354Z,12.82
2022-08-12T13:34:32.053Z,12.73
2022-08-12T13:36:20.369Z,12.47
2022-08-12T13:38:52.070Z,12.24
2022-08-12T13:41:33.633Z,12.73
2022-08-12T13:44:01.872Z,12.24
2022-08-12T13:46:30.876Z,12.04
2022-08-12T13:48:58.803Z,12.26
2022-08-12T13:51:26.975Z,11.85
2022-08-12T13:54:10.004Z,11.77
2022-08-12T13:56:41.654Z,11.82
2022-08-12T13:59:18.373Z,12.42
2022-08-12T14:01:54.437Z,11.89
2022-08-12T14:04:24.899Z,12.30
2022-08-12T14:06:54.068Z,11.83
2022-08-12T14:09:21.820Z,11.62
2022-08-12T14:11:59.029Z,11.75
2022-08-12T14:14:31.581Z,11.59
2022-08-12T14:17:09.994Z,11.62
2022-08-12T14:19:48.571Z,11.70
2022-08-12T14:22:26.096Z,11.67
2022-08-12T14:24:54.207Z,11.69
2022-08-12T14:28:04.470Z,11.76
2022-08-12T14:30:17.163Z,11.80
2022-08-12T14:32:53.351Z,12.39
2022-08-12T14:35:21.604Z,11.84
2022-08-12T14:37:58.150Z,12.31
2022-08-12T14:40:27.788Z,12.22
2022-08-12T14:42:57.037Z,11.67
2022-08-12T14:45:45.373Z,11.79
2022-08-12T14:48:15.125Z,12.01
2022-08-12T14:51:07.598Z,11.92
2022-08-12T14:57:05.766Z,11.42
2022-08-12T14:59:25.404Z,11.98
2022-08-12T15:01:54.696Z,11.96
2022-08-12T15:04:29.185Z,11.87
2022-08-12T15:06:58.125Z,11.43
2022-08-12T15:09:28.738Z,11.27
2022-08-12T15:12:03.092Z,11.64
2022-08-12T15:14:32.025Z,11.38
2022-08-12T15:17:00.217Z,11.63
2022-08-12T15:20:31.033Z,11.81
2022-08-12T15:22:38.341Z,11.65
2022-08-12T15:25:07.586Z,12.10
2022-08-12T15:28:20.408Z,11.57
2022-08-12T15:30:33.913Z,11.57
2022-08-12T15:33:03.215Z,12.11
2022-08-12T15:35:50.234Z,11.53
2022-08-12T15:38:22.229Z,11.92
2022-08-12T15:40:53.376Z,11.99
2022-08-12T15:43:51.744Z,11.52
2022-08-12T15:46:15.578Z,12.03
2022-08-12T15:48:46.757Z,11.68
2022-08-12T15:51:27.889Z,12.09
2022-08-12T15:54:33.723Z,12.05
2022-08-12T15:57:05.634Z,12.17
2022-08-12T16:00:00.070Z,11.90
2022-08-12T16:02:21.593Z,12.00
2022-08-12T16:04:51.447Z,11.93
2022-08-12T16:07:30.178Z,12.32
2022-08-12T16:10:08.702Z,12.40
2022-08-12T16:12:43.381Z,11.75
2022-08-12T16:15:22.783Z,12.28
2022-08-12T16:18:17.874Z,11.83
2022-08-12T16:20:40.761Z,12.36
2022-08-12T16:23:27.009Z,11.89
2022-08-12T16:26:14.409Z,12.01
2022-08-12T16:28:43.490Z,12.44
2022-08-12T16:31:18.564Z,12.33
2022-08-12T16:34:00.408Z,12.24
2022-08-12T16:36:29.304Z,12.30
2022-08-12T16:39:01.471Z,12.59
2022-08-12T16:41:38.191Z,12.09
2022-08-12T16:44:08.290Z,12.46
2022-08-12T16:46:36.196Z,12.03
2022-08-12T16:49:13.263Z,12.19
2022-08-12T16:51:46.911Z,11.95
2022-08-12T16:54:18.340Z,12.32
2022-08-12T16:56:54.502Z,12.07
2022-08-12T16:59:26.333Z,12.00
2022-08-12T17:02:18.120Z,12.19
2022-08-12T17:05:03.335Z,12.13
2022-08-12T17:07:36.614Z,12.64
2022-08-12T17:10:08.207Z,12.48
2022-08-12T17:12:37.568Z,12.34
2022-08-12T17:15:50.413Z,12.34
2022-08-12T17:18:15.237Z,12.51
2022-08-12T17:20:46.748Z,12.62
2022-08-12T17:23:15.785Z,12.66
2022-08-12T17:25:48.384Z,12.40
2022-08-12T17:28:16.965Z,12.33
2022-08-12T17:30:45.424Z,12.25
2022-08-12T17:33:25.305Z,12.48
2022-08-12T17:35:53.228Z,12.63
2022-08-12T17:38:21.244Z,12.28
2022-08-12T17:40:51.293Z,12.53
2022-08-12T17:43:54.578Z,12.58
2022-08-12T17:46:13.041Z,12.34
2022-08-12T17:48:55.196Z,12.67
2022-08-12T17:51:25.240Z,12.55
2022-08-12T17:54:10.566Z,12.26
2022-08-12T17:56:43.221Z,12.46
2022-08-12T17:59:13.065Z,12.27
2022-08-12T18:01:45.121Z,12.56
2022-08-12T18:04:20.726Z,12.33
2022-08-12T18:06:50.950Z,12.70
2022-08-12T18:09:19.696Z,12.44
2022-08-12T18:12:08.379Z,12.77
2022-08-12T18:14:37.301Z,12.44
2022-08-12T18:17:10.187Z,12.48
2022-08-12T18:20:03.903Z,12.59
2022-08-12T18:22:30.754Z,12.65
2022-08-12T18:26:12.544Z,12.73
2022-08-12T18:28:15.706Z,12.68
2022-08-12T18:30:53.055Z,12.66
2022-08-12T18:33:25.843Z,12.74
2022-08-12T18:35:55.651Z,12.59
2022-08-12T18:38:25.823Z,12.64
2022-08-12T18:41:21.826Z,12.92
2022-08-12T18:44:00.031Z,13.05
2022-08-12T18:46:45.823Z,12.69
2022-08-12T18:49:19.869Z,12.74
2022-08-12T18:51:55.255Z,12.90
2022-08-12T18:54:25.616Z,12.96
2022-08-12T18:56:53.993Z,13.18
2022-08-12T19:00:01.449Z,12.97
2022-08-12T19:02:20.585Z,13.05
2022-08-12T19:04:53.496Z,12.82
2022-08-12T19:07:22.706Z,12.83
2022-08-12T19:09:57.993Z,13.15
2022-08-12T19:12:56.930Z,13.17
2022-08-12T19:15:29.979Z,13.10
2022-08-12T19:18:01.047Z,13.17
2022-08-12T19:20:31.611Z,12.98
2022-08-12T19:23:07.192Z,13.17
2022-08-12T19:26:01.389Z,12.91
2022-08-12T19:28:30.400Z,13.46
2022-08-12T19:31:56.355Z,13.20
2022-08-12T19:34:37.676Z,13.33
2022-08-12T19:37:10.860Z,13.39
2022-08-12T19:40:09.919Z,13.39
2022-08-12T19:42:28.166Z,13.59
2022-08-12T19:44:59.643Z,13.56
2022-08-12T19:47:31.190Z,13.62
2022-08-12T19:50:11.223Z,13.39
2022-08-12T19:52:40.809Z,13.56
2022-08-12T19:55:11.626Z,13.64
2022-08-12T19:58:03.337Z,13.75
2022-08-12T20:00:36.096Z,13.66
2022-08-12T20:03:06.463Z,13.66
2022-08-12T20:06:05.565Z,13.70
2022-08-12T20:08:31.688Z,13.88
2022-08-12T20:12:11.142Z,13.87
2022-08-12T20:14:01.170Z,14.12
2022-08-12T20:16:51.730Z,13.85
2022-08-12T20:19:20.739Z,14.06
2022-08-12T20:21:49.514Z,14.01
2022-08-12T20:24:19.122Z,13.93
2022-08-12T20:26:48.306Z,14.20
2022-08-12T20:29:16.815Z,14.10
2022-08-12T20:31:45.378Z,14.14
2022-08-12T20:34:13.289Z,14.38
2022-08-12T20:36:44.279Z,14.21
2022-08-12T20:39:37.394Z,14.32
2022-08-12T20:42:07.095Z,14.19
2022-08-12T20:44:37.814Z,14.36
2022-08-12T20:47:16.632Z,14.33
2022-08-12T20:49:55.831Z,14.46
2022-08-12T20:52:30.501Z,14.46
2022-08-12T20:55:01.901Z,14.73
2022-08-12T20:57:38.235Z,14.54
2022-08-12T21:00:22.538Z,14.66
2022-08-12T21:03:15.866Z,14.72
2022-08-12T21:06:12.940Z,14.87
2022-08-12T21:08:43.747Z,14.90
2022-08-12T21:11:11.555Z,14.90
2022-08-12T21:13:41.901Z,14.90
2022-08-12T21:16:10.437Z,15.03
2022-08-12T21:18:38.438Z,14.92
2022-08-12T21:21:15.725Z,14.97
2022-08-12T21:23:52.402Z,15.07
2022-08-12T21:26:24.358Z,14.97
2022-08-12T21:29:01.738Z,15.17
2022-08-12T21:32:40.537Z,15.17
2022-08-12T21:34:26.359Z,15.18
2022-08-12T21:36:59.158Z,15.17
2022-08-12T21:39:35.636Z,15.22
2022-08-12T21:42:06.553Z,15.26
2022-08-12T21:45:46.701Z,15.37
2022-08-12T21:47:23.245Z,15.40
2022-08-12T21:50:02.445Z,15.53
2022-08-12T21:52:34.881Z,15.52
2022-08-12T21:55:08.635Z,15.59
2022-08-12T21:57:51.113Z,15.72
2022-08-12T22:00:23.898Z,15.43
2022-08-12T22:04:01.285Z,15.68
2022-08-12T22:06:26.392Z,15.75
2022-08-12T22:09:09.069Z,15.64
2022-08-12T22:11:49.360Z,15.60
2022-08-12T22:14:25.034Z,15.85
2022-08-12T22:16:53.879Z,15.79
2022-08-12T22:19:22.926Z,15.76
2022-08-12T22:21:53.219Z,16.03
2022-08-12T22:24:26.347Z,16.20
2022-08-12T22:27:14.303Z,15.88
2022-08-12T22:30:07.265Z,15.90
2022-08-12T22:32:36.587Z,16.01
2022-08-12T22:35:29.070Z,16.35
2022-08-12T22:38:10.994Z,15.86
2022-08-12T22:40:39.711Z,16.23
2022-08-12T22:43:30.585Z,16.03
2022-08-12T22:46:15.800Z,15.99
2022-08-12T22:48:50.683Z,16.00
2022-08-12T22:51:24.056Z,16.33
2022-08-12T22:53:54.217Z,16.17
2022-08-12T22:56:30.819Z,16.40
2022-08-12T22:59:03.062Z,16.68
2022-08-12T23:01:52.641Z,16.71
2022-08-12T23:04:27.539Z,16.38
2022-08-12T23:06:58.382Z,16.70
2022-08-12T23:09:44.857Z,16.50
2022-08-12T23:12:37.422Z,16.64
2022-08-12T23:15:10.020Z,16.60
2022-08-12T23:17:40.879Z,16.59
2022-08-12T23:20:11.253Z,16.54
2022-08-12T23:22:40.252Z,16.53
2022-08-12T23:25:19.131Z,16.89
2022-08-12T23:28:30.260Z,16.54
2022-08-12T23:31:04.349Z,16.99
2022-08-12T23:34:01.471Z,16.90
2022-08-12T23:36:31.442Z,16.67
2022-08-12T23:39:02.020Z,16.88
2022-08-12T23:41:29.760Z,16.90
2022-08-12T23:44:19.749Z,16.90
2022-08-12T23:46:58.703Z,17.18
2022-08-12T23:49:58.128Z,17.02
2022-08-12T23:52:15.401Z,17.28
2022-08-12T23:54:45.888Z,17.19
2022-08-12T23:57:26.573Z,16.91
